CheckWX is a tool to help pilots better visualize weather data.  It is not intended as a substitute for an official pre-flight weather briefing.

14:43:58 UTC

EPWR TAF
Copernicus Wrocław Airport
Wrocław, Poland
TAF EPWR 271430Z 2715/2815 33006KT CAVOK BECMG 2803/2806 BKN012 TEMPO 2804/2809 34015G25KT 3000 SHRA BKN009 BKN012CB BECMG 2809/2812 BKN016 TEMPO 2809/2815 4000 SHRA BKN010 BKN016CB

May-27@
15:00 UTC

May-27 @ 15:00 UTC

May-28@
03:00 UTC

May-28 @ 03:00 UTC

TAF EPWR 271430Z 2715/2815 33006KT CAVOK

Expired

Wind
  • 330° at 6 KTS
Conditions
No significant weather
Cloud Levels
  • No significant clouds

May-28@
03:00 UTC

May-28 @ 03:00 UTC

May-28@
09:00 UTC

May-28 @ 09:00 UTC

BECMG 2803/2806 BKN012

Expired

Wind
  • 330° at 6 KTS
Conditions
No significant weather
Cloud Levels
  • Broken at 1,200' AGL

May-28@
04:00 UTC

May-28 @ 04:00 UTC

May-28@
09:00 UTC

May-28 @ 09:00 UTC

TEMPO 2804/2809 34015G25KT 3000 SHRA BKN009 BKN012CB

Expired

Wind
  • 340° at 15 KTS
  • {Gusting to 25 KTS
Conditions
Showers, Rain
Cloud Levels
  • Broken at 900' AGL
  • Broken at 1,200' AGL

May-28@
09:00 UTC

May-28 @ 09:00 UTC

May-28@
15:00 UTC

May-28 @ 15:00 UTC

BECMG 2809/2812 BKN016

Becoming

Becoming Conditions expected by Thu, May 28, 2020 @ 12:00 UTC

Wind
  • 330° at 6 KTS
Conditions
No significant weather
Cloud Levels
  • Broken at 1,600' AGL

May-28@
09:00 UTC

May-28 @ 09:00 UTC

May-28@
15:00 UTC

May-28 @ 15:00 UTC

TEMPO 2809/2815 4000 SHRA BKN010 BKN016CB

Temporary

Temporary Changes expected for less than half the time period

Conditions
Showers, Rain
Cloud Levels
  • Broken at 1,000' AGL
  • Broken at 1,600' AGL